createdAt,value
2023-04-07T00:02:08.966Z,1.95
2023-04-07T00:04:36.722Z,2.40
2023-04-07T00:07:03.962Z,1.83
2023-04-07T00:09:31.367Z,2.08
2023-04-07T00:11:58.418Z,1.70
2023-04-07T00:14:25.872Z,1.83
2023-04-07T00:16:52.875Z,1.88
2023-04-07T00:19:20.190Z,2.30
2023-04-07T00:21:47.248Z,1.63
2023-04-07T00:24:20.998Z,1.60
2023-04-07T00:26:54.525Z,1.85
2023-04-07T00:29:21.751Z,2.55
2023-04-07T00:31:49.365Z,2.90
2023-04-07T00:34:16.603Z,2.60
2023-04-07T00:36:43.695Z,2.08
2023-04-07T00:39:11.070Z,3.05
2023-04-07T00:41:38.116Z,2.05
2023-04-07T00:44:05.572Z,1.67
2023-04-07T00:46:32.818Z,2.08
2023-04-07T00:49:01.140Z,2.22
2023-04-07T00:51:28.788Z,2.38
2023-04-07T00:53:56.771Z,1.92
2023-04-07T00:56:24.863Z,2.22
2023-04-07T00:58:52.348Z,2.08
2023-04-07T01:01:24.341Z,2.55
2023-04-07T01:04:04.477Z,2.73
2023-04-07T01:06:35.653Z,2.25
2023-04-07T01:09:05.878Z,2.42
2023-04-07T01:11:48.568Z,2.10
2023-04-07T01:14:20.853Z,2.13
2023-04-07T01:17:01.789Z,2.65
2023-04-07T01:19:45.252Z,2.45
2023-04-07T01:22:41.712Z,2.55
2023-04-07T01:25:30.786Z,2.17
2023-04-07T01:28:22.697Z,2.10
2023-04-07T01:30:51.980Z,1.92
2023-04-07T01:33:21.025Z,2.22
2023-04-07T01:35:50.234Z,2.10
2023-04-07T01:38:18.616Z,2.33
2023-04-07T01:40:47.594Z,1.67
2023-04-07T01:43:18.907Z,1.35
2023-04-07T01:45:47.431Z,1.90
2023-04-07T01:48:16.608Z,2.42
2023-04-07T01:50:46.477Z,2.03
2023-04-07T01:53:15.829Z,2.08
2023-04-07T01:55:46.583Z,2.15
2023-04-07T01:58:13.802Z,1.83
2023-04-07T02:00:43.660Z,1.77
2023-04-07T02:03:29.890Z,2.08
2023-04-07T02:06:07.192Z,1.92
2023-04-07T02:08:37.014Z,2.53
2023-04-07T02:11:10.405Z,2.28
2023-04-07T02:13:38.141Z,1.90
2023-04-07T02:16:07.516Z,2.00
2023-04-07T02:18:35.819Z,2.03
2023-04-07T02:21:04.927Z,2.10
2023-04-07T02:23:35.780Z,2.15
2023-04-07T02:26:03.328Z,1.92
2023-04-07T02:28:30.816Z,1.90
2023-04-07T02:30:57.948Z,2.40
2023-04-07T02:33:25.657Z,1.50
2023-04-07T02:35:52.943Z,1.60
2023-04-07T02:38:21.488Z,1.73
2023-04-07T02:40:48.614Z,1.88
2023-04-07T02:43:17.970Z,1.77
2023-04-07T02:45:45.548Z,2.20
2023-04-07T02:48:13.290Z,1.67
2023-04-07T02:50:42.307Z,1.52
2023-04-07T02:53:11.493Z,1.45
2023-04-07T02:55:39.399Z,1.63
2023-04-07T02:58:10.172Z,1.80
2023-04-07T03:00:42.036Z,1.23
2023-04-07T03:03:13.518Z,1.65
2023-04-07T03:05:45.669Z,1.70
2023-04-07T03:08:18.148Z,1.60
2023-04-07T03:10:45.721Z,1.92
2023-04-07T03:13:17.386Z,1.55
2023-04-07T03:15:46.157Z,1.45
2023-04-07T03:18:15.457Z,1.55
2023-04-07T03:20:45.416Z,1.98
2023-04-07T03:23:16.381Z,2.03
2023-04-07T03:25:46.857Z,2.25
2023-04-07T03:28:16.379Z,1.98
2023-04-07T03:30:44.200Z,1.45
2023-04-07T03:33:16.835Z,1.65
2023-04-07T03:35:46.102Z,2.10
2023-04-07T03:38:13.990Z,1.80
2023-04-07T03:40:43.380Z,1.60
2023-04-07T03:43:14.757Z,1.40
2023-04-07T03:45:43.560Z,1.90
2023-04-07T03:48:12.610Z,1.83
2023-04-07T03:50:52.060Z,1.58
2023-04-07T03:53:20.411Z,1.63
2023-04-07T03:55:48.634Z,2.00
2023-04-07T03:58:28.206Z,1.92
2023-04-07T04:00:57.006Z,2.20
2023-04-07T04:03:25.258Z,1.70
2023-04-07T04:06:20.110Z,2.13
2023-04-07T04:08:52.105Z,1.58
2023-04-07T04:11:23.290Z,1.60
2023-04-07T04:14:02.024Z,2.30
2023-04-07T04:16:31.805Z,2.40
2023-04-07T04:19:04.539Z,1.90
2023-04-07T04:21:32.993Z,1.23
2023-04-07T04:24:02.483Z,1.95
2023-04-07T04:26:31.402Z,1.95
2023-04-07T04:29:05.484Z,1.70
2023-04-07T04:31:33.937Z,1.92
2023-04-07T04:34:01.588Z,1.88
2023-04-07T04:36:31.078Z,2.33
2023-04-07T04:39:04.367Z,1.75
2023-04-07T04:41:34.429Z,1.60
2023-04-07T04:44:03.421Z,1.65
2023-04-07T04:46:32.235Z,2.00
2023-04-07T04:49:00.279Z,2.30
2023-04-07T04:51:28.271Z,2.30
2023-04-07T04:54:04.120Z,2.40
2023-04-07T04:56:32.770Z,1.98
2023-04-07T04:59:01.456Z,1.73
2023-04-07T05:01:43.565Z,1.83
2023-04-07T05:04:15.476Z,1.48
2023-04-07T05:06:53.089Z,2.20
2023-04-07T05:09:25.741Z,1.60
2023-04-07T05:11:53.574Z,1.90
2023-04-07T05:14:21.871Z,1.50
2023-04-07T05:16:55.500Z,1.90
2023-04-07T05:19:29.977Z,2.00
2023-04-07T05:22:04.135Z,1.67
2023-04-07T05:24:37.318Z,2.00
2023-04-07T05:27:05.656Z,1.77
2023-04-07T05:29:34.342Z,1.88
2023-04-07T05:32:03.483Z,1.75
2023-04-07T05:34:34.563Z,2.25
2023-04-07T05:37:03.664Z,1.67
2023-04-07T05:39:32.161Z,1.80
2023-04-07T05:42:04.518Z,1.75
2023-04-07T05:44:35.510Z,1.80
2023-04-07T05:47:07.043Z,1.67
2023-04-07T05:49:38.708Z,1.50
2023-04-07T05:52:08.866Z,1.80
2023-04-07T05:54:42.103Z,1.85
2023-04-07T05:57:13.165Z,1.58
2023-04-07T05:59:45.732Z,2.00
2023-04-07T06:02:14.636Z,1.65
2023-04-07T06:04:45.946Z,1.50
2023-04-07T06:07:17.803Z,1.42
2023-04-07T06:09:46.075Z,1.63
2023-04-07T06:12:13.692Z,1.60
2023-04-07T06:14:41.649Z,1.50
2023-04-07T06:17:09.685Z,1.83
2023-04-07T06:19:37.765Z,1.85
2023-04-07T06:22:05.980Z,1.52
2023-04-07T06:24:34.072Z,1.80
2023-04-07T06:27:04.636Z,1.63
2023-04-07T06:29:33.933Z,1.50
2023-04-07T06:32:05.204Z,1.55
2023-04-07T06:34:33.469Z,1.50
2023-04-07T06:37:02.385Z,1.70
2023-04-07T06:39:31.837Z,1.10
2023-04-07T06:42:03.761Z,1.50
2023-04-07T06:44:37.851Z,1.40
2023-04-07T06:47:06.016Z,1.55
2023-04-07T06:49:35.126Z,1.67
2023-04-07T06:52:05.463Z,1.30
2023-04-07T06:54:33.551Z,1.52
2023-04-07T06:57:01.777Z,1.50
2023-04-07T06:59:30.048Z,1.50
2023-04-07T07:01:58.661Z,1.17
2023-04-07T07:04:27.710Z,1.50
2023-04-07T07:06:57.553Z,1.30
2023-04-07T07:09:26.020Z,1.40
2023-04-07T07:11:54.171Z,1.05
2023-04-07T07:14:21.966Z,1.50
2023-04-07T07:16:51.466Z,1.40
2023-04-07T07:19:19.775Z,1.35
2023-04-07T07:21:49.315Z,1.40
2023-04-07T07:24:17.916Z,1.30
2023-04-07T07:26:46.500Z,1.10
2023-04-07T07:29:21.157Z,1.35
2023-04-07T07:31:49.755Z,1.90
2023-04-07T07:34:17.340Z,1.40
2023-04-07T07:36:46.722Z,1.33
2023-04-07T07:39:15.509Z,1.50
2023-04-07T07:41:44.718Z,1.58
2023-04-07T07:44:12.740Z,1.65
2023-04-07T07:46:42.538Z,1.35
2023-04-07T07:49:10.437Z,1.50
2023-04-07T07:51:39.139Z,1.55
2023-04-07T07:54:08.265Z,1.63
2023-04-07T07:56:37.229Z,1.83
2023-04-07T07:59:08.393Z,1.77
2023-04-07T08:01:36.215Z,1.75
2023-04-07T08:04:04.751Z,1.60
2023-04-07T08:06:32.790Z,2.20
2023-04-07T08:09:00.637Z,2.00
2023-04-07T08:11:31.724Z,1.80
2023-04-07T08:16:27.743Z,1.33
2023-04-07T08:18:56.456Z,1.85
2023-04-07T08:21:24.642Z,1.65
2023-04-07T08:23:53.257Z,1.67
2023-04-07T08:26:21.515Z,1.70
2023-04-07T08:28:54.309Z,1.38
2023-04-07T08:31:22.882Z,1.40
2023-04-07T08:33:54.394Z,1.60
2023-04-07T08:36:22.452Z,1.47
2023-04-07T08:38:50.981Z,1.50
2023-04-07T08:41:39.889Z,1.67
2023-04-07T08:44:10.785Z,1.60
2023-04-07T08:46:43.135Z,1.90
2023-04-07T08:49:14.681Z,1.83
2023-04-07T08:51:47.995Z,1.45
2023-04-07T08:54:19.324Z,1.50
2023-04-07T08:56:47.776Z,1.55
2023-04-07T08:59:18.960Z,1.80
2023-04-07T09:01:48.435Z,1.60
2023-04-07T09:04:28.004Z,1.77
2023-04-07T09:06:56.265Z,1.90
2023-04-07T09:09:24.488Z,1.63
2023-04-07T09:11:53.242Z,1.50
2023-04-07T09:14:23.486Z,1.58
2023-04-07T09:16:51.428Z,1.42
2023-04-07T09:19:18.399Z,1.83
2023-04-07T09:21:53.525Z,1.77
2023-04-07T09:24:28.248Z,1.73
2023-04-07T09:27:29.496Z,1.50
2023-04-07T09:30:18.047Z,1.70
2023-04-07T09:32:46.219Z,2.10
2023-04-07T09:35:15.273Z,1.88
2023-04-07T09:37:43.032Z,2.00
2023-04-07T09:40:12.722Z,1.70
2023-04-07T09:42:51.546Z,1.90
2023-04-07T09:48:06.796Z,2.33
2023-04-07T09:50:41.631Z,1.90
2023-04-07T09:53:09.917Z,1.80
2023-04-07T09:55:37.863Z,2.17
2023-04-07T09:58:06.780Z,1.95
2023-04-07T10:00:38.245Z,2.03
2023-04-07T10:03:06.453Z,1.80
2023-04-07T10:05:37.189Z,1.88
2023-04-07T10:08:07.801Z,2.00
2023-04-07T10:10:37.792Z,1.70
2023-04-07T10:13:10.820Z,1.95
2023-04-07T10:18:11.437Z,1.95
2023-04-07T10:20:43.216Z,1.73
2023-04-07T10:23:20.028Z,1.38
2023-04-07T10:25:51.176Z,1.70
2023-04-07T10:28:22.766Z,2.05
2023-04-07T10:30:54.442Z,1.92
2023-04-07T10:33:52.616Z,1.80
2023-04-07T10:36:22.848Z,1.83
2023-04-07T10:39:09.676Z,1.67
2023-04-07T10:41:38.061Z,1.80
2023-04-07T10:44:07.814Z,1.73
2023-04-07T10:46:48.815Z,2.05
2023-04-07T10:49:18.899Z,1.90
2023-04-07T10:52:13.699Z,1.70
2023-04-07T10:54:44.747Z,1.70
2023-04-07T10:57:16.596Z,1.98
2023-04-07T11:00:11.070Z,1.80
2023-04-07T11:02:41.176Z,1.90
2023-04-07T11:05:09.341Z,1.60
2023-04-07T11:07:56.051Z,2.00
2023-04-07T11:10:24.129Z,2.05
2023-04-07T11:13:07.266Z,1.90
2023-04-07T11:15:40.783Z,1.90
2023-04-07T11:18:21.234Z,1.92
2023-04-07T11:20:54.957Z,1.67
2023-04-07T11:23:25.843Z,1.70
2023-04-07T11:26:04.897Z,2.00
2023-04-07T11:28:33.936Z,1.92
2023-04-07T11:31:02.302Z,1.90
2023-04-07T11:33:35.348Z,2.03
2023-04-07T11:36:04.328Z,2.03
2023-04-07T11:38:40.267Z,2.10
2023-04-07T11:41:28.137Z,1.70
2023-04-07T11:44:09.861Z,2.20
2023-04-07T11:46:53.018Z,1.60
2023-04-07T11:49:21.837Z,1.95
2023-04-07T11:51:49.893Z,1.67
2023-04-07T11:54:17.958Z,1.75
2023-04-07T11:56:48.115Z,2.08
2023-04-07T11:59:24.375Z,1.52
2023-04-07T12:01:56.063Z,1.40
2023-04-07T12:04:24.996Z,1.58
2023-04-07T12:06:53.553Z,1.70
2023-04-07T12:09:36.571Z,1.60
2023-04-07T12:12:08.461Z,1.50
2023-04-07T12:17:04.505Z,1.30
2023-04-07T12:19:36.648Z,1.40
2023-04-07T12:24:33.650Z,1.25
2023-04-07T12:27:01.772Z,1.45
2023-04-07T12:29:30.133Z,1.40
2023-04-07T12:31:58.133Z,1.45
2023-04-07T12:34:25.716Z,1.38
2023-04-07T12:36:53.966Z,1.23
2023-04-07T12:39:22.266Z,1.48
2023-04-07T12:41:53.434Z,1.45
2023-04-07T12:44:21.592Z,1.45
2023-04-07T12:46:49.124Z,1.58
2023-04-07T12:49:16.921Z,1.67
2023-04-07T12:51:44.411Z,1.25
2023-04-07T12:54:11.648Z,1.70
2023-04-07T12:56:40.601Z,1.20
2023-04-07T12:59:08.876Z,1.50
2023-04-07T13:01:37.748Z,1.40
2023-04-07T13:04:05.849Z,1.42
2023-04-07T13:06:33.737Z,1.30
2023-04-07T13:09:01.517Z,1.13
2023-04-07T13:11:28.783Z,1.70
2023-04-07T13:13:57.466Z,1.23
2023-04-07T13:16:27.548Z,1.25
2023-04-07T13:18:55.746Z,1.33
2023-04-07T13:23:53.724Z,1.38
2023-04-07T13:26:21.782Z,1.30
2023-04-07T13:28:49.168Z,1.27
2023-04-07T13:31:16.858Z,1.50
2023-04-07T13:33:44.787Z,1.48
2023-04-07T13:36:12.527Z,1.30
2023-04-07T13:38:39.938Z,1.30
2023-04-07T13:41:07.911Z,1.48
2023-04-07T13:43:35.156Z,1.38
2023-04-07T13:46:03.180Z,1.23
2023-04-07T13:48:31.707Z,1.50
2023-04-07T13:50:59.584Z,1.10
2023-04-07T13:53:27.014Z,1.20
2023-04-07T13:55:54.521Z,1.15
2023-04-07T13:58:21.848Z,1.30
2023-04-07T14:00:49.142Z,1.10
2023-04-07T14:03:16.534Z,1.00
2023-04-07T14:05:43.938Z,1.33
2023-04-07T14:08:11.654Z,1.50
2023-04-07T14:10:40.335Z,1.30
2023-04-07T14:13:07.745Z,1.30
2023-04-07T14:15:34.838Z,1.00
2023-04-07T14:18:02.242Z,1.20
2023-04-07T14:20:29.707Z,1.33
2023-04-07T14:22:56.938Z,1.15
2023-04-07T14:25:24.789Z,1.38
2023-04-07T14:27:52.923Z,1.58
2023-04-07T14:30:20.648Z,1.50
2023-04-07T14:32:48.732Z,1.35
2023-04-07T14:35:16.520Z,1.75
2023-04-07T14:37:43.760Z,1.50
2023-04-07T14:40:11.651Z,1.60
2023-04-07T14:42:39.860Z,1.45
2023-04-07T14:45:07.759Z,1.48
2023-04-07T14:47:35.610Z,1.63
2023-04-07T14:50:03.065Z,1.50
2023-04-07T14:52:31.642Z,1.70
2023-04-07T14:55:00.440Z,1.60
2023-04-07T14:57:28.026Z,1.50
2023-04-07T14:59:55.439Z,1.45
2023-04-07T15:02:23.398Z,1.70
2023-04-07T15:04:51.675Z,1.80
2023-04-07T15:07:19.462Z,1.88
2023-04-07T15:09:48.761Z,1.80
2023-04-07T15:12:16.888Z,1.52
2023-04-07T15:14:47.422Z,1.50
2023-04-07T15:17:15.440Z,1.88
2023-04-07T15:19:43.969Z,1.75
2023-04-07T15:22:12.051Z,1.95
2023-04-07T15:24:39.682Z,1.80
2023-04-07T15:27:09.572Z,1.67
2023-04-07T15:29:37.875Z,1.60
2023-04-07T15:32:05.905Z,1.50
2023-04-07T15:34:33.492Z,1.50
2023-04-07T15:37:02.781Z,1.80
2023-04-07T15:39:31.464Z,2.22
2023-04-07T15:41:59.440Z,1.60
2023-04-07T15:44:27.435Z,1.50
2023-04-07T15:46:55.063Z,1.52
2023-04-07T15:49:23.713Z,1.98
2023-04-07T15:51:53.434Z,1.20
2023-04-07T15:54:21.242Z,1.67
2023-04-07T15:56:49.442Z,1.30
2023-04-07T15:59:17.690Z,1.73
2023-04-07T16:01:46.772Z,1.48
2023-04-07T16:04:15.073Z,2.33
2023-04-07T16:06:42.393Z,1.50
2023-04-07T16:09:09.732Z,1.65
2023-04-07T16:11:37.203Z,1.63
2023-04-07T16:14:04.974Z,1.65
2023-04-07T16:16:36.212Z,1.42
2023-04-07T16:19:03.653Z,1.60
2023-04-07T16:21:31.973Z,1.88
2023-04-07T16:23:59.267Z,1.48
2023-04-07T16:26:27.411Z,1.50
2023-04-07T16:28:54.938Z,1.85
2023-04-07T16:31:22.966Z,1.40
2023-04-07T16:33:51.739Z,1.65
2023-04-07T16:36:19.483Z,1.60
2023-04-07T16:38:48.065Z,1.48
2023-04-07T16:41:15.607Z,1.90
2023-04-07T16:43:43.544Z,1.58
2023-04-07T16:46:11.555Z,2.42
2023-04-07T16:48:41.424Z,2.75
2023-04-07T16:51:09.365Z,2.95
2023-04-07T16:53:37.944Z,3.63
2023-04-07T16:56:06.618Z,4.00
2023-04-07T16:58:34.097Z,4.72
2023-04-07T17:01:04.324Z,4.38
2023-04-07T17:03:31.762Z,4.15
2023-04-07T17:06:04.813Z,7.22
2023-04-07T17:08:36.281Z,11.50
2023-04-07T17:11:07.543Z,23.77
2023-04-07T17:13:35.015Z,23.45
2023-04-07T17:16:04.315Z,13.55
2023-04-07T17:18:33.345Z,7.93
2023-04-07T17:21:00.452Z,7.03
2023-04-07T17:23:28.553Z,5.88
2023-04-07T17:25:55.602Z,5.65
2023-04-07T17:28:22.902Z,6.97
2023-04-07T17:30:50.673Z,6.47
2023-04-07T17:33:17.789Z,7.78
2023-04-07T17:35:47.708Z,8.63
2023-04-07T17:38:15.670Z,8.25
2023-04-07T17:40:43.093Z,8.70
2023-04-07T17:43:11.321Z,10.93
2023-04-07T17:45:38.740Z,12.60
2023-04-07T17:48:09.921Z,11.60
2023-04-07T17:50:38.106Z,8.82
2023-04-07T17:53:05.444Z,6.82
2023-04-07T17:55:33.223Z,5.78
2023-04-07T17:58:03.134Z,5.35
2023-04-07T18:00:30.367Z,4.95
2023-04-07T18:02:57.801Z,6.95
2023-04-07T18:05:26.303Z,4.40
2023-04-07T18:07:55.076Z,2.33
2023-04-07T18:10:22.673Z,2.60
2023-04-07T18:12:50.932Z,2.55
2023-04-07T18:15:18.382Z,2.35
2023-04-07T18:17:47.724Z,2.90
2023-04-07T18:20:15.494Z,4.18
2023-04-07T18:22:42.692Z,3.70
2023-04-07T18:25:10.201Z,3.90
2023-04-07T18:27:37.006Z,3.97
2023-04-07T18:30:09.009Z,4.72
2023-04-07T18:32:36.420Z,3.80
2023-04-07T18:35:06.051Z,3.95
2023-04-07T18:37:33.252Z,3.83
2023-04-07T18:40:00.918Z,3.38
2023-04-07T18:42:28.300Z,4.05
2023-04-07T18:44:55.684Z,3.83
2023-04-07T18:47:22.975Z,4.32
2023-04-07T18:49:50.581Z,3.65
2023-04-07T18:52:18.216Z,3.47
2023-04-07T18:54:45.552Z,3.80
2023-04-07T18:57:13.111Z,4.70
2023-04-07T18:59:40.303Z,4.50
2023-04-07T19:02:08.111Z,4.38
2023-04-07T19:04:35.451Z,4.50
2023-04-07T19:07:03.876Z,4.40
2023-04-07T19:09:30.996Z,4.22
2023-04-07T19:11:58.019Z,5.32
2023-04-07T19:14:25.445Z,4.57
2023-04-07T19:16:53.121Z,5.10
2023-04-07T19:19:20.363Z,5.80
2023-04-07T19:21:47.603Z,4.25
2023-04-07T19:24:15.060Z,4.65
2023-04-07T19:26:43.316Z,5.03
2023-04-07T19:29:12.714Z,5.22
2023-04-07T19:31:40.421Z,5.07
2023-04-07T19:34:07.657Z,4.38
2023-04-07T19:36:36.161Z,4.40
2023-04-07T19:39:05.132Z,4.88
2023-04-07T19:41:32.467Z,4.47
2023-04-07T19:43:59.785Z,4.75
2023-04-07T19:46:27.014Z,5.43
2023-04-07T19:48:54.063Z,5.55
2023-04-07T19:51:21.360Z,4.88
2023-04-07T19:53:48.593Z,5.22
2023-04-07T19:56:16.025Z,4.82
2023-04-07T19:58:43.260Z,4.95
2023-04-07T20:01:17.825Z,5.25
2023-04-07T20:03:45.356Z,4.68
2023-04-07T20:06:15.306Z,4.35
2023-04-07T20:08:43.011Z,3.95
2023-04-07T20:11:13.436Z,5.18
2023-04-07T20:13:42.695Z,4.68
2023-04-07T20:16:10.127Z,5.18
2023-04-07T20:18:37.376Z,4.45
2023-04-07T20:21:08.091Z,4.15
2023-04-07T20:23:35.391Z,4.45
2023-04-07T20:26:02.596Z,4.18
2023-04-07T20:28:29.878Z,4.43
2023-04-07T20:30:56.957Z,4.53
2023-04-07T20:33:24.103Z,5.10
2023-04-07T20:35:51.289Z,4.85
2023-04-07T20:38:19.326Z,4.88
2023-04-07T20:40:46.952Z,4.85
2023-04-07T20:43:15.494Z,4.15
2023-04-07T20:45:42.877Z,4.32
2023-04-07T20:48:09.838Z,5.10
2023-04-07T20:50:38.591Z,4.85
2023-04-07T20:53:05.396Z,4.57
2023-04-07T20:55:33.064Z,5.00
2023-04-07T20:58:00.498Z,5.20
2023-04-07T21:00:27.699Z,4.10
2023-04-07T21:02:54.896Z,4.63
2023-04-07T21:05:22.355Z,4.60
2023-04-07T21:07:49.584Z,5.18
2023-04-07T21:10:16.629Z,4.30
2023-04-07T21:12:46.563Z,5.25
2023-04-07T21:15:13.494Z,4.57
2023-04-07T21:17:41.007Z,4.70
2023-04-07T21:20:08.768Z,4.40
2023-04-07T21:22:36.025Z,4.88
2023-04-07T21:25:07.207Z,5.38
2023-04-07T21:27:36.047Z,5.00
2023-04-07T21:30:06.914Z,5.32
2023-04-07T21:32:33.747Z,5.18
2023-04-07T21:35:01.281Z,5.28
2023-04-07T21:37:28.259Z,4.90
2023-04-07T21:39:55.762Z,5.10
2023-04-07T21:42:22.813Z,5.30
2023-04-07T21:44:50.033Z,5.15
2023-04-07T21:47:17.817Z,5.32
2023-04-07T21:49:45.010Z,5.00
2023-04-07T21:52:12.737Z,5.20
2023-04-07T21:54:40.097Z,5.38
2023-04-07T21:57:07.934Z,5.70
2023-04-07T21:59:36.166Z,5.47
2023-04-07T22:02:03.865Z,5.43
2023-04-07T22:04:32.211Z,5.35
2023-04-07T22:06:59.537Z,4.90
2023-04-07T22:09:27.527Z,5.00
2023-04-07T22:11:54.867Z,5.65
2023-04-07T22:14:25.106Z,5.90
2023-04-07T22:16:52.982Z,5.47
2023-04-07T22:19:20.109Z,5.40
2023-04-07T22:21:49.683Z,5.45
2023-04-07T22:24:16.767Z,5.63
2023-04-07T22:26:43.595Z,5.88
2023-04-07T22:29:12.019Z,4.78
2023-04-07T22:31:39.192Z,5.82
2023-04-07T22:34:06.521Z,4.90
2023-04-07T22:36:34.611Z,6.60
2023-04-07T22:39:01.782Z,4.82
2023-04-07T22:41:28.863Z,5.55
2023-04-07T22:43:55.860Z,5.20
2023-04-07T22:46:23.137Z,5.18
2023-04-07T22:48:51.054Z,4.70
2023-04-07T22:51:18.138Z,5.15
2023-04-07T22:53:45.963Z,6.05
2023-04-07T22:56:13.457Z,5.38
2023-04-07T22:58:40.487Z,5.13
2023-04-07T23:01:07.382Z,5.35
2023-04-07T23:03:34.588Z,5.07
2023-04-07T23:06:02.791Z,4.65
2023-04-07T23:08:29.954Z,5.35
2023-04-07T23:10:57.103Z,6.28
2023-04-07T23:13:24.444Z,5.60
2023-04-07T23:15:51.671Z,5.85
2023-04-07T23:18:18.775Z,5.00
2023-04-07T23:20:52.428Z,4.80
2023-04-07T23:23:19.625Z,5.65
2023-04-07T23:25:46.789Z,5.65
2023-04-07T23:28:13.975Z,6.13
2023-04-07T23:30:42.427Z,5.00
2023-04-07T23:33:09.467Z,5.60
2023-04-07T23:35:36.742Z,6.35
2023-04-07T23:38:04.895Z,6.20
2023-04-07T23:40:32.349Z,5.35
2023-04-07T23:42:59.810Z,4.97
2023-04-07T23:45:26.796Z,5.68
2023-04-07T23:47:53.887Z,6.10
2023-04-07T23:50:21.121Z,6.47
2023-04-07T23:52:48.165Z,5.15
2023-04-07T23:55:15.036Z,5.88
2023-04-07T23:57:43.162Z,6.20
